createdAt,value
2023-10-09T00:00:48.587Z,0.00
2023-10-09T00:01:52.912Z,1.00
2023-10-09T00:02:57.413Z,0.50
2023-10-09T00:04:01.596Z,0.75
2023-10-09T00:05:05.718Z,0.75
2023-10-09T00:06:09.758Z,0.50
2023-10-09T00:07:14.325Z,0.00
2023-10-09T00:08:18.987Z,0.50
2023-10-09T00:09:23.514Z,0.50
2023-10-09T00:10:27.694Z,0.50
2023-10-09T00:11:32.079Z,1.25
2023-10-09T00:12:35.966Z,1.00
2023-10-09T00:13:40.207Z,0.00
2023-10-09T00:14:44.289Z,0.50
2023-10-09T00:15:48.157Z,0.50
2023-10-09T00:16:52.197Z,0.00
2023-10-09T00:17:56.568Z,0.00
2023-10-09T00:19:00.261Z,0.50
2023-10-09T00:20:03.977Z,0.00
2023-10-09T00:21:07.852Z,0.00
2023-10-09T00:22:11.583Z,1.50
2023-10-09T00:23:15.334Z,3.00
2023-10-09T00:24:19.343Z,2.25
2023-10-09T00:25:23.289Z,1.00
2023-10-09T00:26:27.072Z,1.00
2023-10-09T00:27:31.019Z,0.50
2023-10-09T00:28:34.673Z,0.50
2023-10-09T00:29:38.765Z,0.50
2023-10-09T00:30:42.735Z,1.00
2023-10-09T00:31:46.521Z,1.00
2023-10-09T00:32:50.324Z,1.50
2023-10-09T00:33:55.020Z,3.00
2023-10-09T00:34:59.206Z,2.00
2023-10-09T00:36:03.319Z,0.50
2023-10-09T00:37:07.490Z,1.00
2023-10-09T00:38:11.700Z,0.00
2023-10-09T00:39:15.741Z,0.50
2023-10-09T00:40:20.100Z,1.00
2023-10-09T00:41:24.333Z,1.00
2023-10-09T00:42:28.574Z,1.75
2023-10-09T00:43:32.626Z,2.00
2023-10-09T00:44:36.533Z,0.75
2023-10-09T00:45:40.631Z,1.50
2023-10-09T00:46:44.656Z,1.00
2023-10-09T00:47:49.575Z,2.00
2023-10-09T00:48:53.450Z,2.25
2023-10-09T00:49:57.057Z,1.00
2023-10-09T00:51:01.775Z,0.00
2023-10-09T00:52:05.849Z,0.50
2023-10-09T00:53:09.552Z,0.50
2023-10-09T00:54:14.048Z,1.50
2023-10-09T00:55:18.064Z,2.00
2023-10-09T00:56:22.092Z,1.50
2023-10-09T00:57:26.127Z,0.75
2023-10-09T00:58:30.016Z,0.50
2023-10-09T00:59:34.170Z,1.00
2023-10-09T01:00:38.131Z,0.50
2023-10-09T01:01:42.179Z,1.50
2023-10-09T01:02:46.702Z,1.00
2023-10-09T01:03:52.533Z,0.75
2023-10-09T01:04:57.053Z,1.00
2023-10-09T01:06:01.499Z,0.00
2023-10-09T01:07:05.784Z,1.00
2023-10-09T01:08:09.760Z,1.00
2023-10-09T01:09:13.886Z,2.25
2023-10-09T01:10:17.970Z,1.50
2023-10-09T01:11:22.082Z,0.50
2023-10-09T01:12:26.521Z,1.00
2023-10-09T01:13:30.689Z,0.50
2023-10-09T01:14:34.558Z,1.00
2023-10-09T01:15:38.898Z,1.00
2023-10-09T01:16:42.805Z,1.00
2023-10-09T01:17:46.937Z,1.00
2023-10-09T01:18:51.008Z,0.00
2023-10-09T01:19:54.657Z,0.00
2023-10-09T01:20:58.822Z,1.00
2023-10-09T01:22:02.804Z,1.75
2023-10-09T01:23:06.836Z,3.00
2023-10-09T01:24:11.126Z,1.75
2023-10-09T01:25:15.317Z,1.00
2023-10-09T01:26:19.324Z,0.00
2023-10-09T01:27:23.075Z,0.50
2023-10-09T01:28:27.109Z,1.50
2023-10-09T01:29:31.012Z,1.50
2023-10-09T01:30:35.182Z,3.00
2023-10-09T01:31:39.255Z,1.50
2023-10-09T01:32:43.286Z,0.00
2023-10-09T01:33:47.579Z,0.75
2023-10-09T01:34:52.207Z,1.50
2023-10-09T01:35:56.356Z,1.50
2023-10-09T01:37:00.151Z,1.25
2023-10-09T01:38:03.973Z,1.50
2023-10-09T01:39:07.808Z,2.00
2023-10-09T01:40:11.736Z,2.50
2023-10-09T01:41:15.582Z,1.50
2023-10-09T01:42:19.747Z,1.00
2023-10-09T01:43:24.055Z,1.50
2023-10-09T01:44:28.671Z,2.00
2023-10-09T01:45:32.756Z,1.00
2023-10-09T01:46:36.988Z,1.00
2023-10-09T01:47:41.036Z,0.75
2023-10-09T01:48:44.824Z,1.00
2023-10-09T01:49:49.398Z,0.00
2023-10-09T01:50:53.533Z,0.00
2023-10-09T01:51:57.310Z,1.00
2023-10-09T01:53:01.500Z,1.50
2023-10-09T01:54:05.241Z,2.00
2023-10-09T01:55:09.401Z,2.75
2023-10-09T01:56:13.402Z,1.25
2023-10-09T01:57:17.292Z,0.50
2023-10-09T01:58:21.295Z,2.00
2023-10-09T01:59:25.293Z,0.50
2023-10-09T02:00:29.054Z,0.50
2023-10-09T02:01:33.295Z,1.00
2023-10-09T02:02:37.453Z,0.75
2023-10-09T02:03:41.795Z,1.00
2023-10-09T02:04:45.936Z,1.50
2023-10-09T02:05:49.719Z,0.00
2023-10-09T02:06:53.910Z,1.00
2023-10-09T02:07:58.016Z,1.50
2023-10-09T02:09:01.864Z,1.25
2023-10-09T02:10:05.613Z,1.00
2023-10-09T02:11:09.761Z,1.50
2023-10-09T02:12:14.200Z,0.00
2023-10-09T02:13:18.548Z,0.00
2023-10-09T02:14:23.257Z,0.00
2023-10-09T02:15:27.282Z,0.00
2023-10-09T02:16:31.402Z,1.00
2023-10-09T02:17:35.177Z,2.00
2023-10-09T02:18:39.223Z,2.50
2023-10-09T02:19:43.057Z,1.00
2023-10-09T02:20:47.084Z,2.00
2023-10-09T02:21:51.365Z,1.50
2023-10-09T02:22:55.985Z,0.00
2023-10-09T02:24:00.056Z,1.50
2023-10-09T02:25:04.292Z,1.75
2023-10-09T02:26:08.292Z,0.25
2023-10-09T02:27:12.538Z,1.50
2023-10-09T02:28:17.936Z,0.50
2023-10-09T02:29:22.030Z,0.00
2023-10-09T02:30:26.054Z,0.00
2023-10-09T02:31:29.893Z,0.00
2023-10-09T02:32:33.708Z,0.00
2023-10-09T02:33:37.824Z,1.50
2023-10-09T02:34:41.940Z,1.00
2023-10-09T02:35:45.746Z,1.50
2023-10-09T02:36:49.334Z,1.00
2023-10-09T02:37:53.345Z,0.00
2023-10-09T02:38:56.970Z,1.00
2023-10-09T02:40:01.151Z,1.00
2023-10-09T02:41:05.331Z,0.00
2023-10-09T02:42:09.314Z,1.50
2023-10-09T02:43:13.227Z,1.25
2023-10-09T02:44:17.499Z,2.00
2023-10-09T02:45:21.834Z,1.75
2023-10-09T02:46:25.875Z,0.50
2023-10-09T02:47:29.831Z,2.25
2023-10-09T02:48:33.917Z,1.00
2023-10-09T02:49:38.157Z,0.50
2023-10-09T02:50:41.761Z,0.25
2023-10-09T02:51:45.651Z,0.00
2023-10-09T02:52:49.667Z,0.00
2023-10-09T02:53:54.275Z,1.00
2023-10-09T02:54:58.674Z,2.00
2023-10-09T02:56:02.678Z,0.00
2023-10-09T02:57:06.694Z,0.00
2023-10-09T02:58:10.983Z,1.00
2023-10-09T02:59:15.007Z,2.75
2023-10-09T03:00:19.035Z,1.75
2023-10-09T03:01:23.678Z,2.00
2023-10-09T03:02:27.721Z,3.00
2023-10-09T03:03:32.215Z,1.00
2023-10-09T03:04:36.355Z,1.00
2023-10-09T03:05:40.358Z,2.00
2023-10-09T03:06:44.447Z,2.00
2023-10-09T03:07:49.049Z,1.50
2023-10-09T03:08:53.156Z,1.50
2023-10-09T03:09:57.252Z,1.00
2023-10-09T03:11:01.564Z,0.50
2023-10-09T03:12:05.591Z,0.00
2023-10-09T03:13:09.663Z,0.00
2023-10-09T03:14:13.598Z,0.75
2023-10-09T03:15:17.780Z,0.50
2023-10-09T03:16:22.736Z,2.75
2023-10-09T03:17:26.531Z,1.50
2023-10-09T03:18:30.724Z,2.00
2023-10-09T03:19:34.796Z,2.00
2023-10-09T03:20:38.653Z,1.00
2023-10-09T03:21:42.325Z,1.50
2023-10-09T03:22:46.147Z,1.50
2023-10-09T03:23:50.686Z,1.50
2023-10-09T03:24:54.512Z,2.00
2023-10-09T03:26:10.807Z,0.75
2023-10-09T03:27:03.672Z,2.00
2023-10-09T03:28:07.538Z,2.00
2023-10-09T03:29:11.683Z,2.00
2023-10-09T03:30:15.437Z,1.50
2023-10-09T03:31:19.543Z,1.50
2023-10-09T03:32:23.197Z,1.00
2023-10-09T03:33:27.327Z,0.50
2023-10-09T03:34:31.314Z,1.00
2023-10-09T03:35:35.136Z,1.00
2023-10-09T03:36:39.096Z,1.00
2023-10-09T03:37:43.232Z,1.00
2023-10-09T03:38:47.161Z,1.50
2023-10-09T03:39:51.855Z,1.00
2023-10-09T03:40:55.738Z,1.25
2023-10-09T03:42:00.080Z,1.00
2023-10-09T03:43:04.466Z,1.00
2023-10-09T03:44:08.784Z,0.00
2023-10-09T03:45:12.688Z,1.00
2023-10-09T03:46:16.420Z,1.25
2023-10-09T03:47:20.359Z,0.50
2023-10-09T03:48:24.779Z,0.00
2023-10-09T03:49:28.515Z,0.50
2023-10-09T03:50:32.358Z,1.25
2023-10-09T03:51:36.194Z,1.00
2023-10-09T03:52:40.920Z,1.25
2023-10-09T03:53:45.131Z,1.00
2023-10-09T03:54:49.229Z,0.50
2023-10-09T03:55:53.918Z,1.00
2023-10-09T03:56:58.035Z,2.00
2023-10-09T03:58:02.123Z,1.00
2023-10-09T03:59:06.230Z,0.00
2023-10-09T04:00:10.436Z,0.00
2023-10-09T04:01:14.795Z,0.00
2023-10-09T04:02:18.691Z,0.50
2023-10-09T04:03:23.037Z,2.00
2023-10-09T04:04:27.083Z,2.00
2023-10-09T04:05:32.893Z,1.75
2023-10-09T04:06:36.863Z,1.50
2023-10-09T04:07:40.992Z,0.75
2023-10-09T04:08:45.296Z,1.25
2023-10-09T04:09:50.051Z,1.25
2023-10-09T04:10:57.974Z,1.00
2023-10-09T04:11:59.687Z,2.00
2023-10-09T04:13:03.867Z,1.25
2023-10-09T04:14:08.290Z,1.00
2023-10-09T04:15:12.605Z,1.00
2023-10-09T04:16:16.691Z,0.00
2023-10-09T04:17:21.306Z,0.00
2023-10-09T04:18:26.162Z,0.50
2023-10-09T04:19:30.800Z,1.50
2023-10-09T04:20:34.935Z,1.00
2023-10-09T04:21:39.810Z,1.00
2023-10-09T04:22:44.101Z,2.00
2023-10-09T04:23:48.149Z,2.50
2023-10-09T04:24:52.799Z,1.00
2023-10-09T04:25:57.621Z,1.50
2023-10-09T04:27:02.057Z,2.00
2023-10-09T04:28:06.018Z,2.00
2023-10-09T04:29:09.926Z,0.50
2023-10-09T04:30:13.982Z,1.50
2023-10-09T04:31:18.052Z,1.00
2023-10-09T04:32:22.132Z,2.50
2023-10-09T04:33:26.508Z,1.50
2023-10-09T04:34:31.059Z,1.00
2023-10-09T04:35:35.776Z,1.50
2023-10-09T04:36:40.017Z,1.00
2023-10-09T04:37:44.180Z,1.00
2023-10-09T04:38:48.107Z,1.00
2023-10-09T04:39:52.813Z,0.00
2023-10-09T04:40:57.106Z,1.00
2023-10-09T04:42:01.645Z,1.50
2023-10-09T04:43:06.480Z,2.00
2023-10-09T04:44:11.346Z,2.00
2023-10-09T04:45:15.380Z,2.00
2023-10-09T04:46:19.764Z,1.75
2023-10-09T04:47:24.307Z,2.00
2023-10-09T04:48:28.630Z,0.75
2023-10-09T04:49:33.099Z,1.00
2023-10-09T04:50:37.318Z,1.00
2023-10-09T04:51:41.601Z,1.50
2023-10-09T04:52:46.151Z,0.50
2023-10-09T04:53:50.695Z,1.00
2023-10-09T04:54:54.878Z,1.50
2023-10-09T04:55:59.168Z,1.50
2023-10-09T04:57:03.919Z,1.50
2023-10-09T04:58:08.054Z,2.00
2023-10-09T04:59:12.397Z,1.00
2023-10-09T05:00:16.874Z,0.50
2023-10-09T05:01:20.842Z,0.00
2023-10-09T05:02:25.671Z,0.50
2023-10-09T05:03:29.677Z,2.00
2023-10-09T05:04:33.570Z,1.00
2023-10-09T05:05:37.465Z,2.00
2023-10-09T05:06:41.467Z,2.75
2023-10-09T05:07:45.319Z,1.00
2023-10-09T05:08:49.531Z,1.00
2023-10-09T05:09:53.327Z,3.00
2023-10-09T05:10:57.120Z,2.50
2023-10-09T05:12:01.327Z,1.00
2023-10-09T05:13:05.426Z,0.50
2023-10-09T05:14:09.424Z,0.50
2023-10-09T05:15:13.994Z,1.00
2023-10-09T05:16:17.875Z,1.80
2023-10-09T05:17:21.821Z,1.50
2023-10-09T05:18:26.007Z,1.25
2023-10-09T05:19:30.459Z,0.50
2023-10-09T05:20:34.564Z,0.00
2023-10-09T05:21:38.516Z,0.25
2023-10-09T05:22:42.770Z,1.75
2023-10-09T05:23:46.676Z,2.25
2023-10-09T05:24:50.670Z,2.50
2023-10-09T05:25:55.210Z,1.75
2023-10-09T05:26:59.504Z,1.00
2023-10-09T05:28:03.698Z,1.00
2023-10-09T05:29:08.235Z,1.25
2023-10-09T05:30:12.518Z,1.00
2023-10-09T05:31:16.294Z,1.25
2023-10-09T05:32:20.041Z,0.50
2023-10-09T05:33:24.388Z,0.50
2023-10-09T05:34:28.837Z,1.00
2023-10-09T05:35:33.036Z,2.00
2023-10-09T05:36:37.019Z,1.50
2023-10-09T05:37:40.745Z,0.00
2023-10-09T05:38:44.515Z,0.00
2023-10-09T05:39:48.427Z,0.50
2023-10-09T05:40:52.234Z,1.00
2023-10-09T05:41:56.120Z,1.50
2023-10-09T05:43:00.223Z,1.25
2023-10-09T05:44:04.435Z,1.00
2023-10-09T05:45:09.303Z,1.00
2023-10-09T05:46:14.841Z,1.00
2023-10-09T05:47:18.593Z,1.50
2023-10-09T05:48:23.464Z,1.50
2023-10-09T05:49:27.711Z,1.00
2023-10-09T05:50:32.127Z,1.50
2023-10-09T05:51:36.552Z,1.00
2023-10-09T05:52:41.363Z,0.50
2023-10-09T05:53:45.764Z,0.75
2023-10-09T05:54:50.183Z,1.00
2023-10-09T05:55:54.796Z,0.75
2023-10-09T05:56:59.039Z,0.00
2023-10-09T05:58:03.203Z,1.00
2023-10-09T05:59:07.448Z,1.00
2023-10-09T06:00:11.938Z,1.50
2023-10-09T06:01:16.377Z,2.00
2023-10-09T06:02:20.543Z,1.50
2023-10-09T06:03:25.146Z,0.50
2023-10-09T06:04:29.623Z,0.25
2023-10-09T06:05:34.089Z,0.50
2023-10-09T06:06:38.218Z,0.00
2023-10-09T06:07:42.408Z,0.25
2023-10-09T06:08:47.010Z,1.00
2023-10-09T06:09:52.183Z,2.25
2023-10-09T06:10:56.752Z,2.00
2023-10-09T06:12:01.096Z,1.00
2023-10-09T06:13:05.657Z,1.50
2023-10-09T06:14:10.086Z,1.00
2023-10-09T06:15:14.376Z,0.25
2023-10-09T06:16:18.837Z,0.00
2023-10-09T06:17:23.113Z,0.50
2023-10-09T06:18:27.594Z,1.50
2023-10-09T06:19:31.838Z,1.50
2023-10-09T06:20:36.148Z,1.00
2023-10-09T06:21:40.701Z,1.50
2023-10-09T06:22:45.574Z,1.50
2023-10-09T06:23:49.951Z,0.50
2023-10-09T06:24:54.246Z,1.00
2023-10-09T06:25:58.706Z,0.75
2023-10-09T06:27:02.680Z,0.25
2023-10-09T06:28:07.445Z,0.50
2023-10-09T06:29:11.837Z,0.50
2023-10-09T06:30:16.135Z,0.50
2023-10-09T06:31:20.501Z,1.25
2023-10-09T06:32:24.381Z,2.50
2023-10-09T06:33:28.472Z,1.00
2023-10-09T06:34:32.446Z,0.00
2023-10-09T06:35:36.302Z,0.00
2023-10-09T06:36:40.470Z,1.50
2023-10-09T06:37:44.652Z,1.50
2023-10-09T06:38:48.988Z,0.75
2023-10-09T06:39:53.995Z,1.25
2023-10-09T06:40:57.907Z,1.50
2023-10-09T06:42:02.300Z,1.50
2023-10-09T06:43:06.514Z,0.50
2023-10-09T06:44:10.812Z,1.50
2023-10-09T06:45:15.549Z,2.50
2023-10-09T06:46:20.274Z,1.00
2023-10-09T06:47:24.172Z,0.50
2023-10-09T06:48:27.984Z,0.50
2023-10-09T06:49:31.984Z,1.25
2023-10-09T06:50:36.161Z,0.75
2023-10-09T06:51:40.410Z,0.00
2023-10-09T06:52:44.591Z,0.00
2023-10-09T06:53:49.407Z,1.25
2023-10-09T06:54:53.773Z,2.75
2023-10-09T06:55:57.696Z,1.50
2023-10-09T06:57:01.992Z,0.50
2023-10-09T06:58:06.013Z,0.00
2023-10-09T06:59:10.221Z,1.50
2023-10-09T07:00:14.339Z,2.00
2023-10-09T07:01:18.609Z,1.75
2023-10-09T07:02:23.031Z,1.00
2023-10-09T07:03:27.576Z,1.00
2023-10-09T07:04:32.138Z,2.50
2023-10-09T07:05:36.310Z,2.00
2023-10-09T07:06:40.384Z,1.00
2023-10-09T07:07:44.570Z,1.00
2023-10-09T07:08:48.915Z,1.00
2023-10-09T07:09:53.625Z,1.50
2023-10-09T07:10:58.242Z,1.00
2023-10-09T07:12:02.321Z,1.00
2023-10-09T07:13:08.328Z,1.25
2023-10-09T07:14:11.705Z,0.50
2023-10-09T07:15:16.087Z,1.00
2023-10-09T07:16:20.214Z,2.00
2023-10-09T07:17:24.767Z,0.50
2023-10-09T07:18:29.463Z,1.75
2023-10-09T07:19:33.835Z,1.50
2023-10-09T07:20:37.959Z,1.00
2023-10-09T07:21:42.982Z,1.00
2023-10-09T07:22:47.378Z,0.75
2023-10-09T07:23:51.872Z,1.00
2023-10-09T07:24:55.958Z,0.50
2023-10-09T07:26:00.101Z,1.00
2023-10-09T07:27:04.196Z,1.50
2023-10-09T07:28:08.205Z,1.50
2023-10-09T07:29:12.170Z,2.50
2023-10-09T07:30:16.491Z,2.00
2023-10-09T07:31:20.927Z,1.00
2023-10-09T07:32:24.811Z,0.50
2023-10-09T07:33:29.373Z,1.50
2023-10-09T07:34:33.505Z,1.00
2023-10-09T07:35:37.911Z,1.50
2023-10-09T07:36:42.184Z,1.50
2023-10-09T07:37:46.630Z,2.00
2023-10-09T07:38:50.738Z,3.00
2023-10-09T07:39:55.760Z,1.75
2023-10-09T07:41:00.200Z,1.25
2023-10-09T07:42:04.405Z,1.00
2023-10-09T07:43:09.149Z,1.00
2023-10-09T07:44:13.371Z,1.50
2023-10-09T07:45:17.558Z,1.00
2023-10-09T07:46:21.953Z,0.50
2023-10-09T07:47:26.155Z,1.75
2023-10-09T07:48:33.486Z,0.75
2023-10-09T07:49:37.328Z,1.50
2023-10-09T07:50:41.510Z,2.00
2023-10-09T07:51:45.831Z,2.50
2023-10-09T07:52:50.780Z,2.50
2023-10-09T07:53:55.571Z,1.00
2023-10-09T07:54:59.466Z,1.50
2023-10-09T07:56:03.774Z,1.75
2023-10-09T07:57:07.764Z,2.00
2023-10-09T07:58:11.998Z,1.50
2023-10-09T07:59:15.879Z,2.00
2023-10-09T08:00:19.810Z,1.25
2023-10-09T08:01:24.119Z,1.00
2023-10-09T08:02:28.120Z,1.50
2023-10-09T08:03:31.830Z,2.50
2023-10-09T08:04:35.773Z,1.50
2023-10-09T08:05:39.749Z,1.00
2023-10-09T08:06:56.812Z,1.25
2023-10-09T08:08:01.982Z,1.00
2023-10-09T08:08:53.114Z,1.50
2023-10-09T08:09:57.942Z,3.00
2023-10-09T08:11:02.053Z,3.50
2023-10-09T08:12:06.149Z,1.50
2023-10-09T08:13:10.966Z,1.25
2023-10-09T08:14:15.419Z,3.00
2023-10-09T08:15:20.311Z,3.00
2023-10-09T08:16:28.452Z,3.00
2023-10-09T08:17:32.796Z,2.50
2023-10-09T08:18:36.780Z,1.50
2023-10-09T08:19:41.528Z,2.50
2023-10-09T08:20:45.724Z,3.00
2023-10-09T08:21:50.081Z,2.00
2023-10-09T08:22:54.447Z,2.50
2023-10-09T08:23:58.447Z,2.50
2023-10-09T08:25:03.275Z,2.00
2023-10-09T08:26:07.887Z,2.75
2023-10-09T08:27:12.331Z,3.00
2023-10-09T08:28:16.353Z,2.00
2023-10-09T08:29:21.481Z,2.25
2023-10-09T08:30:25.481Z,2.00
2023-10-09T08:31:29.769Z,1.50
2023-10-09T08:34:20.697Z,2.00
2023-10-09T08:35:49.676Z,1.75
2023-10-09T08:36:54.156Z,2.00
2023-10-09T08:37:59.077Z,3.00
2023-10-09T08:39:03.159Z,2.50
2023-10-09T08:40:07.653Z,2.50
2023-10-09T08:41:11.884Z,3.50
2023-10-09T08:42:16.193Z,1.50
2023-10-09T08:43:20.329Z,1.00
2023-10-09T08:44:24.194Z,2.00
2023-10-09T08:45:28.393Z,2.00
2023-10-09T08:46:32.551Z,2.75
2023-10-09T08:47:36.543Z,4.50
2023-10-09T08:48:40.920Z,3.00
2023-10-09T08:49:49.820Z,1.00
2023-10-09T08:50:53.525Z,2.00
2023-10-09T08:51:57.772Z,2.75
2023-10-09T08:53:02.035Z,1.75
2023-10-09T08:54:06.242Z,1.00
2023-10-09T08:55:10.359Z,3.00
2023-10-09T08:56:14.248Z,4.00
2023-10-09T08:57:18.518Z,2.00
2023-10-09T08:58:22.477Z,2.25
2023-10-09T08:59:26.866Z,1.00
2023-10-09T09:00:30.762Z,2.00
2023-10-09T09:01:34.478Z,3.00
2023-10-09T09:02:38.612Z,3.50
2023-10-09T09:03:42.505Z,3.00
2023-10-09T09:04:46.562Z,3.00
2023-10-09T09:05:51.266Z,3.00
2023-10-09T09:06:55.593Z,2.00
2023-10-09T09:07:59.563Z,0.75
2023-10-09T09:09:03.896Z,2.25
2023-10-09T09:10:07.667Z,4.25
2023-10-09T09:11:11.579Z,4.00
2023-10-09T09:12:15.421Z,1.75
2023-10-09T09:13:19.732Z,2.00
2023-10-09T09:14:23.786Z,1.50
2023-10-09T09:15:27.709Z,2.00
2023-10-09T09:16:31.855Z,2.50
2023-10-09T09:17:35.880Z,2.00
2023-10-09T09:18:39.825Z,3.50
2023-10-09T09:19:43.883Z,2.00
2023-10-09T09:20:48.129Z,2.00
2023-10-09T09:21:53.550Z,2.75
2023-10-09T09:22:58.048Z,0.50
2023-10-09T09:24:02.152Z,1.50
2023-10-09T09:25:06.174Z,2.00
2023-10-09T09:26:10.389Z,1.50
2023-10-09T09:27:14.448Z,1.25
2023-10-09T09:28:18.374Z,1.40
2023-10-09T09:29:22.591Z,0.75
2023-10-09T09:30:26.794Z,2.00
2023-10-09T09:31:30.948Z,2.25
2023-10-09T09:32:35.164Z,2.50
2023-10-09T09:33:39.097Z,1.00
2023-10-09T09:34:43.147Z,2.50
2023-10-09T09:35:47.339Z,2.50
2023-10-09T09:36:51.416Z,1.50
2023-10-09T09:37:55.273Z,0.75
2023-10-09T09:38:59.617Z,1.00
2023-10-09T09:40:03.416Z,1.75
2023-10-09T09:41:07.658Z,2.50
2023-10-09T09:42:11.817Z,3.00
2023-10-09T09:43:16.024Z,2.50
2023-10-09T09:44:19.970Z,1.00
2023-10-09T09:45:23.539Z,1.50
2023-10-09T09:46:27.382Z,3.00
2023-10-09T09:47:31.854Z,1.50
2023-10-09T09:48:36.263Z,0.50
2023-10-09T09:49:40.075Z,2.25
2023-10-09T09:50:43.957Z,2.25
2023-10-09T09:51:48.075Z,2.25
2023-10-09T09:52:51.789Z,2.00
2023-10-09T09:53:55.727Z,3.00
2023-10-09T09:54:59.729Z,5.50
2023-10-09T09:56:03.713Z,3.00
2023-10-09T09:57:07.785Z,1.50
2023-10-09T09:58:11.848Z,1.25
2023-10-09T09:59:16.415Z,1.00
2023-10-09T10:00:20.574Z,2.50
2023-10-09T10:01:24.924Z,2.00
2023-10-09T10:02:29.002Z,0.50
2023-10-09T10:03:33.085Z,0.50
2023-10-09T10:04:38.536Z,1.50
2023-10-09T10:05:42.714Z,2.00
2023-10-09T10:06:47.031Z,2.25
2023-10-09T10:07:53.214Z,1.50
2023-10-09T10:08:57.686Z,1.50
2023-10-09T10:10:02.162Z,1.50
2023-10-09T10:11:06.435Z,1.50
2023-10-09T10:12:10.616Z,2.50
2023-10-09T10:13:14.726Z,2.00
2023-10-09T10:14:18.764Z,2.00
2023-10-09T10:15:22.823Z,3.00
2023-10-09T10:16:27.219Z,2.00
2023-10-09T10:17:32.223Z,0.75
2023-10-09T10:18:36.699Z,1.50
2023-10-09T10:19:41.672Z,2.00
2023-10-09T10:20:45.620Z,1.00
2023-10-09T10:21:50.569Z,1.00
2023-10-09T10:22:54.753Z,1.50
2023-10-09T10:23:59.132Z,1.50
2023-10-09T10:25:03.385Z,0.50
2023-10-09T10:26:07.578Z,2.00
2023-10-09T10:27:11.660Z,3.50
2023-10-09T10:28:16.050Z,2.00
2023-10-09T10:29:20.473Z,2.00
2023-10-09T10:30:25.002Z,1.75
2023-10-09T10:31:32.570Z,2.00
2023-10-09T10:32:34.193Z,2.25
2023-10-09T10:33:38.244Z,2.50
2023-10-09T10:34:42.579Z,1.50
2023-10-09T10:35:46.937Z,1.50
2023-10-09T10:36:51.139Z,2.00
2023-10-09T10:37:55.781Z,2.50
2023-10-09T10:39:00.160Z,2.00
2023-10-09T10:40:04.096Z,1.50
2023-10-09T10:41:08.010Z,1.00
2023-10-09T10:42:11.660Z,2.00
2023-10-09T10:43:15.859Z,2.50
2023-10-09T10:44:19.801Z,1.50
2023-10-09T10:45:23.856Z,1.00
2023-10-09T10:46:27.524Z,1.50
2023-10-09T10:47:31.265Z,0.00
2023-10-09T10:48:34.844Z,1.25
2023-10-09T10:49:38.884Z,2.50
2023-10-09T10:50:42.946Z,2.50
2023-10-09T10:52:50.589Z,2.50
2023-10-09T10:54:58.370Z,0.50
2023-10-09T10:56:02.262Z,0.75
2023-10-09T10:57:05.964Z,1.00
2023-10-09T10:58:10.573Z,0.00
2023-10-09T10:59:14.789Z,1.00
2023-10-09T11:00:18.745Z,1.50
2023-10-09T11:01:23.983Z,1.00
2023-10-09T11:02:27.888Z,0.50
2023-10-09T11:03:32.267Z,0.50
2023-10-09T11:04:36.471Z,1.50
2023-10-09T11:05:40.378Z,1.00
2023-10-09T11:06:43.977Z,1.00
2023-10-09T11:07:47.833Z,2.00
2023-10-09T11:08:51.988Z,3.00
2023-10-09T11:09:56.396Z,2.00
2023-10-09T11:11:00.573Z,2.00
2023-10-09T11:12:04.187Z,1.50
2023-10-09T11:13:07.885Z,2.00
2023-10-09T11:14:12.066Z,1.75
2023-10-09T11:15:15.899Z,1.00
2023-10-09T11:16:19.896Z,0.50
2023-10-09T11:17:23.796Z,1.50
2023-10-09T11:18:28.247Z,2.50
2023-10-09T11:19:31.924Z,1.00
2023-10-09T11:20:35.684Z,1.50
2023-10-09T11:21:39.380Z,1.50
2023-10-09T11:22:43.317Z,1.50
2023-10-09T11:23:47.506Z,1.00
2023-10-09T11:24:51.285Z,1.00
2023-10-09T11:25:55.408Z,1.00
2023-10-09T11:26:58.981Z,1.50
2023-10-09T11:28:02.692Z,2.00
2023-10-09T11:29:06.900Z,1.25
2023-10-09T11:30:10.714Z,1.00
2023-10-09T11:31:14.823Z,1.00
2023-10-09T11:32:18.712Z,2.50
2023-10-09T11:33:22.394Z,1.50
2023-10-09T11:34:26.479Z,1.50
2023-10-09T11:35:30.409Z,2.00
2023-10-09T11:36:34.199Z,1.50
2023-10-09T11:37:38.113Z,2.00
2023-10-09T11:38:41.983Z,1.50
2023-10-09T11:39:45.860Z,1.00
2023-10-09T11:40:49.940Z,1.00
2023-10-09T11:41:54.704Z,2.00
2023-10-09T11:42:59.099Z,2.50
2023-10-09T11:44:03.067Z,1.50
2023-10-09T11:45:07.201Z,1.00
2023-10-09T11:46:11.284Z,1.00
2023-10-09T11:47:15.365Z,1.00
2023-10-09T11:48:19.448Z,2.50
2023-10-09T11:49:23.929Z,3.25
2023-10-09T11:50:27.917Z,3.00
2023-10-09T11:51:31.857Z,1.50
2023-10-09T11:52:35.768Z,1.00
2023-10-09T11:53:39.867Z,2.00
2023-10-09T11:54:43.618Z,2.50
2023-10-09T11:55:48.122Z,2.75
2023-10-09T11:56:52.258Z,3.00
2023-10-09T11:57:56.344Z,1.50
2023-10-09T11:59:00.324Z,2.00
2023-10-09T12:00:04.306Z,3.00
2023-10-09T12:01:08.199Z,1.50
2023-10-09T12:02:12.001Z,1.00
2023-10-09T12:03:16.149Z,2.50
2023-10-09T12:04:20.171Z,2.50
2023-10-09T12:05:24.160Z,1.00
2023-10-09T12:06:28.148Z,1.00
2023-10-09T12:07:32.195Z,1.00
2023-10-09T12:08:36.360Z,2.00
2023-10-09T12:09:40.402Z,1.75
2023-10-09T12:10:44.407Z,1.00
2023-10-09T12:12:01.309Z,1.00
2023-10-09T12:12:53.217Z,1.00
2023-10-09T12:13:57.203Z,1.50
2023-10-09T12:15:01.185Z,1.25
2023-10-09T12:16:05.125Z,2.25
2023-10-09T12:17:09.337Z,1.50
2023-10-09T12:18:13.930Z,1.00
2023-10-09T12:19:17.832Z,1.75
2023-10-09T12:20:21.621Z,2.00
2023-10-09T12:21:25.430Z,2.50
2023-10-09T12:22:29.588Z,2.00
2023-10-09T12:23:33.490Z,1.00
2023-10-09T12:24:37.611Z,1.50
2023-10-09T12:25:41.851Z,1.50
2023-10-09T12:26:45.394Z,1.00
2023-10-09T12:27:49.331Z,1.25
2023-10-09T12:28:53.319Z,1.00
2023-10-09T12:29:56.779Z,2.50
2023-10-09T12:31:01.098Z,2.50
2023-10-09T12:32:05.037Z,1.00
2023-10-09T12:33:08.910Z,1.50
2023-10-09T12:34:12.952Z,2.50
2023-10-09T12:35:16.491Z,3.25
2023-10-09T12:36:20.180Z,1.50
2023-10-09T12:37:24.105Z,1.00
2023-10-09T12:38:28.074Z,1.50
2023-10-09T12:39:31.782Z,1.00
2023-10-09T12:40:35.892Z,1.50
2023-10-09T12:41:40.698Z,2.00
2023-10-09T12:42:45.480Z,2.00
2023-10-09T12:43:49.363Z,5.00
2023-10-09T12:44:53.519Z,2.75
2023-10-09T12:45:57.311Z,0.50
2023-10-09T12:47:01.112Z,1.50
2023-10-09T12:48:05.522Z,2.00
2023-10-09T12:49:09.926Z,2.50
2023-10-09T12:50:13.881Z,2.50
2023-10-09T12:51:17.953Z,2.00
2023-10-09T12:52:22.417Z,2.00
2023-10-09T12:53:26.653Z,3.50
2023-10-09T12:54:30.563Z,4.00
2023-10-09T12:55:34.584Z,2.00
2023-10-09T12:56:38.522Z,3.00
2023-10-09T12:57:42.445Z,4.00
2023-10-09T12:58:46.328Z,3.25
2023-10-09T12:59:50.651Z,4.00
2023-10-09T13:00:54.476Z,3.50
2023-10-09T13:02:01.063Z,1.50
2023-10-09T13:03:04.643Z,4.00
2023-10-09T13:04:08.647Z,5.00
2023-10-09T13:05:12.484Z,3.50
2023-10-09T13:06:16.193Z,3.50
2023-10-09T13:07:19.892Z,3.50
2023-10-09T13:08:23.827Z,3.50
2023-10-09T13:09:27.286Z,3.75
2023-10-09T13:10:31.106Z,4.75
2023-10-09T13:11:35.289Z,4.75
2023-10-09T13:12:38.936Z,3.00
2023-10-09T13:13:42.899Z,4.00
2023-10-09T13:14:46.671Z,4.00
2023-10-09T13:15:51.289Z,4.25
2023-10-09T13:16:55.226Z,4.50
2023-10-09T13:17:58.853Z,3.25
2023-10-09T13:19:02.570Z,4.00
2023-10-09T13:20:06.315Z,4.25
2023-10-09T13:21:09.896Z,4.00
2023-10-09T13:22:13.815Z,5.50
2023-10-09T13:23:17.261Z,7.00
2023-10-09T13:24:20.887Z,6.00
2023-10-09T13:25:34.584Z,4.00
2023-10-09T13:26:32.923Z,4.25
2023-10-09T13:27:33.696Z,4.50
2023-10-09T13:28:37.501Z,5.50
2023-10-09T13:29:41.728Z,6.00
2023-10-09T13:30:45.359Z,4.50
2023-10-09T13:31:49.643Z,2.50
2023-10-09T13:32:53.302Z,1.50
2023-10-09T13:33:56.831Z,2.50
2023-10-09T13:35:00.253Z,3.50
2023-10-09T13:36:03.786Z,3.50
2023-10-09T13:37:07.908Z,4.00
2023-10-09T13:38:12.020Z,3.00
2023-10-09T13:39:15.739Z,2.50
2023-10-09T13:40:19.585Z,3.00
2023-10-09T13:41:24.016Z,3.00
2023-10-09T13:42:27.627Z,3.75
2023-10-09T13:43:31.007Z,4.50
2023-10-09T13:44:34.838Z,3.00
2023-10-09T13:45:38.612Z,3.00
2023-10-09T13:46:42.321Z,3.50
2023-10-09T13:47:45.915Z,3.50
2023-10-09T13:48:49.485Z,4.25
2023-10-09T13:49:54.470Z,5.00
2023-10-09T13:50:58.122Z,4.00
2023-10-09T13:52:01.801Z,2.75
2023-10-09T13:53:05.827Z,3.00
2023-10-09T13:54:09.737Z,3.00
2023-10-09T13:55:13.382Z,3.50
2023-10-09T13:56:17.492Z,5.50
2023-10-09T13:57:21.182Z,5.00
2023-10-09T13:58:25.188Z,4.00
2023-10-09T13:59:29.188Z,2.75
2023-10-09T14:00:33.133Z,2.50
2023-10-09T14:01:36.953Z,2.50
2023-10-09T14:02:41.286Z,2.00
2023-10-09T14:03:45.689Z,1.75
2023-10-09T14:04:49.528Z,2.00
2023-10-09T14:05:53.415Z,2.25
2023-10-09T14:06:57.134Z,2.50
2023-10-09T14:08:01.214Z,3.50
2023-10-09T14:09:05.398Z,2.50
2023-10-09T14:10:09.433Z,3.25
2023-10-09T14:11:13.280Z,4.00
2023-10-09T14:12:16.995Z,4.75
2023-10-09T14:13:20.806Z,3.50
2023-10-09T14:14:24.944Z,3.50
2023-10-09T14:15:29.029Z,3.50
2023-10-09T14:16:32.874Z,2.50
2023-10-09T14:17:37.011Z,3.50
2023-10-09T14:18:40.688Z,3.75